sensor_id;sensor_type;location;lat;lon;timestamp;P1;durP1;ratioP1;P2;durP2;ratioP2
73893;SDS011;62227;50.534;12.784;2022-07-23T00:04:32;12.63;;;8.00;;
73893;SDS011;62227;50.534;12.784;2022-07-23T00:09:33;13.02;;;8.38;;
73893;SDS011;62227;50.534;12.784;2022-07-23T00:14:33;12.57;;;8.18;;
73893;SDS011;62227;50.534;12.784;2022-07-23T00:19:34;11.05;;;7.57;;
73893;SDS011;62227;50.534;12.784;2022-07-23T00:24:34;12.40;;;8.23;;
73893;SDS011;62227;50.534;12.784;2022-07-23T00:29:34;15.73;;;7.82;;
73893;SDS011;62227;50.534;12.784;2022-07-23T00:34:35;12.18;;;8.32;;
73893;SDS011;62227;50.534;12.784;2022-07-23T00:39:35;12.30;;;8.18;;
73893;SDS011;62227;50.534;12.784;2022-07-23T00:44:35;12.18;;;8.20;;
73893;SDS011;62227;50.534;12.784;2022-07-23T00:49:36;12.75;;;8.15;;
73893;SDS011;62227;50.534;12.784;2022-07-23T00:54:36;11.80;;;7.88;;
73893;SDS011;62227;50.534;12.784;2022-07-23T00:59:38;13.38;;;8.57;;
73893;SDS011;62227;50.534;12.784;2022-07-23T01:04:39;16.33;;;8.52;;
73893;SDS011;62227;50.534;12.784;2022-07-23T01:09:39;11.40;;;7.55;;
73893;SDS011;62227;50.534;12.784;2022-07-23T01:14:40;14.40;;;7.95;;
73893;SDS011;62227;50.534;12.784;2022-07-23T01:19:40;12.23;;;7.78;;
73893;SDS011;62227;50.534;12.784;2022-07-23T01:24:41;11.82;;;7.80;;
73893;SDS011;62227;50.534;12.784;2022-07-23T01:29:41;11.87;;;8.13;;
73893;SDS011;62227;50.534;12.784;2022-07-23T01:34:41;12.48;;;8.23;;
73893;SDS011;62227;50.534;12.784;2022-07-23T01:39:42;12.05;;;7.70;;
73893;SDS011;62227;50.534;12.784;2022-07-23T01:44:42;12.48;;;7.82;;
73893;SDS011;62227;50.534;12.784;2022-07-23T01:49:43;12.75;;;7.45;;
73893;SDS011;62227;50.534;12.784;2022-07-23T01:54:43;11.60;;;7.80;;
73893;SDS011;62227;50.534;12.784;2022-07-23T01:59:43;11.27;;;7.93;;
73893;SDS011;62227;50.534;12.784;2022-07-23T02:04:44;13.50;;;8.80;;
73893;SDS011;62227;50.534;12.784;2022-07-23T02:09:44;14.10;;;8.80;;
73893;SDS011;62227;50.534;12.784;2022-07-23T02:14:44;15.18;;;8.60;;
73893;SDS011;62227;50.534;12.784;2022-07-23T02:19:45;12.73;;;8.57;;
73893;SDS011;62227;50.534;12.784;2022-07-23T02:24:45;11.43;;;7.65;;
73893;SDS011;62227;50.534;12.784;2022-07-23T02:29:45;12.02;;;8.13;;
73893;SDS011;62227;50.534;12.784;2022-07-23T02:34:46;12.15;;;8.00;;
73893;SDS011;62227;50.534;12.784;2022-07-23T02:39:47;11.50;;;7.25;;
73893;SDS011;62227;50.534;12.784;2022-07-23T02:44:48;12.55;;;8.05;;
73893;SDS011;62227;50.534;12.784;2022-07-23T02:49:48;10.95;;;7.38;;
73893;SDS011;62227;50.534;12.784;2022-07-23T02:54:49;13.32;;;8.18;;
73893;SDS011;62227;50.534;12.784;2022-07-23T02:59:49;14.93;;;8.38;;
73893;SDS011;62227;50.534;12.784;2022-07-23T03:04:50;11.43;;;7.75;;
73893;SDS011;62227;50.534;12.784;2022-07-23T03:09:51;12.13;;;7.38;;
73893;SDS011;62227;50.534;12.784;2022-07-23T03:14:51;12.93;;;8.70;;
73893;SDS011;62227;50.534;12.784;2022-07-23T03:19:51;12.02;;;8.00;;
73893;SDS011;62227;50.534;12.784;2022-07-23T03:24:52;12.70;;;7.97;;
73893;SDS011;62227;50.534;12.784;2022-07-23T03:29:56;13.10;;;8.10;;
73893;SDS011;62227;50.534;12.784;2022-07-23T03:34:57;13.75;;;9.32;;
73893;SDS011;62227;50.534;12.784;2022-07-23T03:39:58;11.90;;;7.68;;
73893;SDS011;62227;50.534;12.784;2022-07-23T03:44:58;12.27;;;8.80;;
73893;SDS011;62227;50.534;12.784;2022-07-23T03:49:59;13.68;;;8.13;;
73893;SDS011;62227;50.534;12.784;2022-07-23T03:54:59;12.25;;;7.57;;
73893;SDS011;62227;50.534;12.784;2022-07-23T03:59:59;12.10;;;8.55;;
73893;SDS011;62227;50.534;12.784;2022-07-23T04:05:00;12.25;;;8.05;;
73893;SDS011;62227;50.534;12.784;2022-07-23T04:10:00;16.85;;;9.88;;
73893;SDS011;62227;50.534;12.784;2022-07-23T04:15:01;18.27;;;10.18;;
73893;SDS011;62227;50.534;12.784;2022-07-23T04:20:02;12.30;;;8.98;;
73893;SDS011;62227;50.534;12.784;2022-07-23T04:25:03;14.40;;;8.75;;
73893;SDS011;62227;50.534;12.784;2022-07-23T04:30:03;14.07;;;10.05;;
73893;SDS011;62227;50.534;12.784;2022-07-23T04:35:04;13.57;;;8.75;;
73893;SDS011;62227;50.534;12.784;2022-07-23T04:40:05;15.82;;;8.85;;
73893;SDS011;62227;50.534;12.784;2022-07-23T04:45:06;13.82;;;9.32;;
73893;SDS011;62227;50.534;12.784;2022-07-23T04:50:07;13.32;;;8.60;;
73893;SDS011;62227;50.534;12.784;2022-07-23T04:55:07;12.48;;;8.77;;
73893;SDS011;62227;50.534;12.784;2022-07-23T05:00:08;14.52;;;8.57;;
73893;SDS011;62227;50.534;12.784;2022-07-23T05:05:10;13.45;;;8.25;;
73893;SDS011;62227;50.534;12.784;2022-07-23T05:10:11;11.27;;;7.07;;
73893;SDS011;62227;50.534;12.784;2022-07-23T05:15:11;12.88;;;7.63;;
73893;SDS011;62227;50.534;12.784;2022-07-23T05:20:11;12.73;;;8.18;;
73893;SDS011;62227;50.534;12.784;2022-07-23T05:25:13;12.48;;;7.97;;
73893;SDS011;62227;50.534;12.784;2022-07-23T05:30:13;11.70;;;7.97;;
73893;SDS011;62227;50.534;12.784;2022-07-23T05:35:14;13.82;;;8.32;;
73893;SDS011;62227;50.534;12.784;2022-07-23T05:40:14;16.60;;;11.35;;
73893;SDS011;62227;50.534;12.784;2022-07-23T05:45:14;17.98;;;13.23;;
73893;SDS011;62227;50.534;12.784;2022-07-23T05:50:15;19.77;;;14.57;;
73893;SDS011;62227;50.534;12.784;2022-07-23T05:55:16;22.15;;;16.25;;
73893;SDS011;62227;50.534;12.784;2022-07-23T06:00:16;22.65;;;16.90;;
73893;SDS011;62227;50.534;12.784;2022-07-23T06:05:17;21.08;;;15.20;;
73893;SDS011;62227;50.534;12.784;2022-07-23T06:10:17;24.73;;;16.98;;
73893;SDS011;62227;50.534;12.784;2022-07-23T06:15:18;23.25;;;16.77;;
73893;SDS011;62227;50.534;12.784;2022-07-23T06:20:18;22.75;;;16.55;;
73893;SDS011;62227;50.534;12.784;2022-07-23T06:25:18;21.92;;;15.52;;
73893;SDS011;62227;50.534;12.784;2022-07-23T06:30:20;25.40;;;17.17;;
73893;SDS011;62227;50.534;12.784;2022-07-23T06:35:21;22.10;;;16.08;;
73893;SDS011;62227;50.534;12.784;2022-07-23T06:40:21;23.20;;;15.93;;
73893;SDS011;62227;50.534;12.784;2022-07-23T06:45:22;22.70;;;15.60;;
73893;SDS011;62227;50.534;12.784;2022-07-23T06:50:22;21.17;;;14.63;;
73893;SDS011;62227;50.534;12.784;2022-07-23T06:55:23;16.75;;;11.75;;
73893;SDS011;62227;50.534;12.784;2022-07-23T07:00:23;19.80;;;13.80;;
73893;SDS011;62227;50.534;12.784;2022-07-23T07:05:26;18.58;;;13.32;;
73893;SDS011;62227;50.534;12.784;2022-07-23T07:10:27;18.73;;;12.93;;
73893;SDS011;62227;50.534;12.784;2022-07-23T07:15:27;19.75;;;14.88;;
73893;SDS011;62227;50.534;12.784;2022-07-23T07:20:28;22.40;;;14.38;;
73893;SDS011;62227;50.534;12.784;2022-07-23T07:25:28;20.63;;;13.85;;
73893;SDS011;62227;50.534;12.784;2022-07-23T07:30:29;21.00;;;16.42;;
73893;SDS011;62227;50.534;12.784;2022-07-23T07:35:29;20.27;;;14.90;;
73893;SDS011;62227;50.534;12.784;2022-07-23T07:40:32;23.30;;;15.68;;
73893;SDS011;62227;50.534;12.784;2022-07-23T07:45:32;18.65;;;14.40;;
73893;SDS011;62227;50.534;12.784;2022-07-23T07:50:33;17.42;;;12.68;;
73893;SDS011;62227;50.534;12.784;2022-07-23T07:55:33;22.58;;;16.23;;
73893;SDS011;62227;50.534;12.784;2022-07-23T08:00:33;18.85;;;13.48;;
73893;SDS011;62227;50.534;12.784;2022-07-23T08:05:34;22.73;;;13.88;;
73893;SDS011;62227;50.534;12.784;2022-07-23T08:10:34;18.02;;;13.90;;
73893;SDS011;62227;50.534;12.784;2022-07-23T08:15:35;18.50;;;14.25;;
73893;SDS011;62227;50.534;12.784;2022-07-23T08:20:36;18.02;;;12.95;;
73893;SDS011;62227;50.534;12.784;2022-07-23T08:25:37;18.70;;;14.50;;
73893;SDS011;62227;50.534;12.784;2022-07-23T08:30:40;18.05;;;12.88;;
73893;SDS011;62227;50.534;12.784;2022-07-23T08:35:42;15.25;;;11.15;;
73893;SDS011;62227;50.534;12.784;2022-07-23T08:40:50;16.75;;;11.23;;
73893;SDS011;62227;50.534;12.784;2022-07-23T08:45:52;16.65;;;11.20;;
73893;SDS011;62227;50.534;12.784;2022-07-23T08:50:59;13.55;;;9.98;;
73893;SDS011;62227;50.534;12.784;2022-07-23T08:56:02;16.25;;;12.82;;
73893;SDS011;62227;50.534;12.784;2022-07-23T09:01:03;16.80;;;12.57;;
73893;SDS011;62227;50.534;12.784;2022-07-23T09:06:04;16.33;;;12.07;;
73893;SDS011;62227;50.534;12.784;2022-07-23T09:11:05;17.25;;;12.63;;
73893;SDS011;62227;50.534;12.784;2022-07-23T09:36:46;12.85;;;9.80;;
73893;SDS011;62227;50.534;12.784;2022-07-23T09:41:47;14.75;;;10.05;;
73893;SDS011;62227;50.534;12.784;2022-07-23T09:46:57;12.90;;;9.30;;
73893;SDS011;62227;50.534;12.784;2022-07-23T09:52:00;11.90;;;8.18;;
73893;SDS011;62227;50.534;12.784;2022-07-23T09:57:11;11.00;;;8.50;;
73893;SDS011;62227;50.534;12.784;2022-07-23T10:02:16;11.00;;;8.25;;
73893;SDS011;62227;50.534;12.784;2022-07-23T10:07:17;13.82;;;8.80;;
73893;SDS011;62227;50.534;12.784;2022-07-23T10:12:17;12.50;;;8.55;;
73893;SDS011;62227;50.534;12.784;2022-07-23T10:17:37;13.10;;;9.27;;
73893;SDS011;62227;50.534;12.784;2022-07-23T10:22:39;12.55;;;8.25;;
73893;SDS011;62227;50.534;12.784;2022-07-23T10:39:16;14.75;;;8.32;;
73893;SDS011;62227;50.534;12.784;2022-07-23T10:44:23;13.02;;;8.80;;
73893;SDS011;62227;50.534;12.784;2022-07-23T10:49:27;12.30;;;8.55;;
73893;SDS011;62227;50.534;12.784;2022-07-23T10:54:30;11.57;;;7.97;;
73893;SDS011;62227;50.534;12.784;2022-07-23T10:59:30;11.83;;;8.80;;
73893;SDS011;62227;50.534;12.784;2022-07-23T11:10:09;12.18;;;8.43;;
73893;SDS011;62227;50.534;12.784;2022-07-23T11:21:24;12.07;;;8.00;;
73893;SDS011;62227;50.534;12.784;2022-07-23T11:31:37;16.45;;;7.57;;
73893;SDS011;62227;50.534;12.784;2022-07-23T11:36:50;11.85;;;8.00;;
73893;SDS011;62227;50.534;12.784;2022-07-23T11:41:51;12.73;;;8.38;;
73893;SDS011;62227;50.534;12.784;2022-07-23T11:46:59;11.95;;;8.25;;
73893;SDS011;62227;50.534;12.784;2022-07-23T11:57:57;13.63;;;8.60;;
73893;SDS011;62227;50.534;12.784;2022-07-23T12:02:59;11.60;;;8.25;;
73893;SDS011;62227;50.534;12.784;2022-07-23T12:08:01;13.30;;;8.52;;
73893;SDS011;62227;50.534;12.784;2022-07-23T12:13:16;12.38;;;8.38;;
73893;SDS011;62227;50.534;12.784;2022-07-23T12:18:24;12.07;;;7.53;;
73893;SDS011;62227;50.534;12.784;2022-07-23T12:23:26;11.45;;;7.47;;
73893;SDS011;62227;50.534;12.784;2022-07-23T12:28:28;10.60;;;7.18;;
73893;SDS011;62227;50.534;12.784;2022-07-23T12:33:34;10.35;;;6.85;;
73893;SDS011;62227;50.534;12.784;2022-07-23T12:38:44;13.55;;;7.25;;
73893;SDS011;62227;50.534;12.784;2022-07-23T12:43:48;13.23;;;6.85;;
73893;SDS011;62227;50.534;12.784;2022-07-23T12:53:53;13.32;;;7.25;;
73893;SDS011;62227;50.534;12.784;2022-07-23T13:04:09;9.90;;;6.22;;
73893;SDS011;62227;50.534;12.784;2022-07-23T13:09:15;11.65;;;7.40;;
73893;SDS011;62227;50.534;12.784;2022-07-23T13:14:18;10.20;;;7.00;;
73893;SDS011;62227;50.534;12.784;2022-07-23T13:19:20;12.18;;;7.70;;
73893;SDS011;62227;50.534;12.784;2022-07-23T13:24:23;11.13;;;7.07;;
73893;SDS011;62227;50.534;12.784;2022-07-23T13:29:24;10.80;;;7.38;;
73893;SDS011;62227;50.534;12.784;2022-07-23T13:34:25;13.07;;;8.52;;
73893;SDS011;62227;50.534;12.784;2022-07-23T13:39:28;10.90;;;6.90;;
73893;SDS011;62227;50.534;12.784;2022-07-23T13:44:28;11.48;;;6.88;;
73893;SDS011;62227;50.534;12.784;2022-07-23T13:49:28;11.32;;;6.50;;
73893;SDS011;62227;50.534;12.784;2022-07-23T13:54:29;10.27;;;6.82;;
73893;SDS011;62227;50.534;12.784;2022-07-23T14:04:59;9.15;;;6.30;;
73893;SDS011;62227;50.534;12.784;2022-07-23T14:09:59;11.35;;;7.10;;
73893;SDS011;62227;50.534;12.784;2022-07-23T14:15:00;11.90;;;7.45;;
73893;SDS011;62227;50.534;12.784;2022-07-23T14:20:01;11.20;;;6.93;;
73893;SDS011;62227;50.534;12.784;2022-07-23T14:25:03;13.32;;;7.30;;
73893;SDS011;62227;50.534;12.784;2022-07-23T14:30:07;11.50;;;7.75;;
73893;SDS011;62227;50.534;12.784;2022-07-23T14:35:08;11.50;;;7.30;;
73893;SDS011;62227;50.534;12.784;2022-07-23T14:40:09;12.70;;;7.25;;
73893;SDS011;62227;50.534;12.784;2022-07-23T14:45:10;10.90;;;7.15;;
73893;SDS011;62227;50.534;12.784;2022-07-23T14:50:10;13.07;;;8.18;;
73893;SDS011;62227;50.534;12.784;2022-07-23T14:55:11;13.25;;;8.93;;
73893;SDS011;62227;50.534;12.784;2022-07-23T15:00:12;12.15;;;8.60;;
73893;SDS011;62227;50.534;12.784;2022-07-23T15:05:27;14.68;;;8.85;;
73893;SDS011;62227;50.534;12.784;2022-07-23T15:10:29;13.18;;;10.13;;
73893;SDS011;62227;50.534;12.784;2022-07-23T15:15:32;13.35;;;10.02;;
73893;SDS011;62227;50.534;12.784;2022-07-23T15:20:33;14.18;;;9.02;;
73893;SDS011;62227;50.534;12.784;2022-07-23T15:25:33;12.38;;;9.35;;
73893;SDS011;62227;50.534;12.784;2022-07-23T15:30:35;12.38;;;9.68;;
73893;SDS011;62227;50.534;12.784;2022-07-23T15:35:35;17.40;;;12.35;;
73893;SDS011;62227;50.534;12.784;2022-07-23T15:40:36;15.85;;;11.70;;
73893;SDS011;62227;50.534;12.784;2022-07-23T15:45:36;16.55;;;11.38;;
73893;SDS011;62227;50.534;12.784;2022-07-23T15:50:37;12.85;;;10.35;;
73893;SDS011;62227;50.534;12.784;2022-07-23T15:55:38;15.70;;;12.32;;
73893;SDS011;62227;50.534;12.784;2022-07-23T16:00:38;16.20;;;13.02;;
73893;SDS011;62227;50.534;12.784;2022-07-23T16:05:40;15.77;;;11.88;;
73893;SDS011;62227;50.534;12.784;2022-07-23T16:10:41;17.83;;;12.35;;
73893;SDS011;62227;50.534;12.784;2022-07-23T16:15:41;16.17;;;11.18;;
73893;SDS011;62227;50.534;12.784;2022-07-23T16:20:42;16.58;;;12.52;;
73893;SDS011;62227;50.534;12.784;2022-07-23T16:25:42;18.25;;;14.05;;
73893;SDS011;62227;50.534;12.784;2022-07-23T16:31:01;17.98;;;13.60;;
73893;SDS011;62227;50.534;12.784;2022-07-23T16:36:02;18.70;;;15.15;;
73893;SDS011;62227;50.534;12.784;2022-07-23T16:41:04;18.00;;;14.02;;
73893;SDS011;62227;50.534;12.784;2022-07-23T16:46:10;19.23;;;14.45;;
73893;SDS011;62227;50.534;12.784;2022-07-23T16:51:12;16.95;;;13.40;;
73893;SDS011;62227;50.534;12.784;2022-07-23T16:56:13;18.77;;;13.23;;
73893;SDS011;62227;50.534;12.784;2022-07-23T17:01:13;16.75;;;12.48;;
73893;SDS011;62227;50.534;12.784;2022-07-23T17:06:13;18.67;;;13.30;;
73893;SDS011;62227;50.534;12.784;2022-07-23T17:16:39;16.40;;;11.40;;
73893;SDS011;62227;50.534;12.784;2022-07-23T17:21:39;14.75;;;10.23;;
73893;SDS011;62227;50.534;12.784;2022-07-23T17:26:40;13.20;;;10.02;;
73893;SDS011;62227;50.534;12.784;2022-07-23T17:31:45;14.45;;;10.18;;
73893;SDS011;62227;50.534;12.784;2022-07-23T17:36:55;13.77;;;9.77;;
73893;SDS011;62227;50.534;12.784;2022-07-23T17:41:56;12.68;;;9.05;;
73893;SDS011;62227;50.534;12.784;2022-07-23T17:46:57;13.75;;;9.40;;
73893;SDS011;62227;50.534;12.784;2022-07-23T17:52:01;14.30;;;9.75;;
73893;SDS011;62227;50.534;12.784;2022-07-23T17:57:02;11.57;;;8.68;;
73893;SDS011;62227;50.534;12.784;2022-07-23T18:02:03;24.17;;;14.32;;
73893;SDS011;62227;50.534;12.784;2022-07-23T18:07:03;13.75;;;9.27;;
73893;SDS011;62227;50.534;12.784;2022-07-23T18:12:04;12.07;;;8.15;;
73893;SDS011;62227;50.534;12.784;2022-07-23T18:17:04;10.98;;;7.80;;
73893;SDS011;62227;50.534;12.784;2022-07-23T18:22:05;11.32;;;7.50;;
73893;SDS011;62227;50.534;12.784;2022-07-23T18:27:12;11.27;;;7.97;;
73893;SDS011;62227;50.534;12.784;2022-07-23T18:32:13;11.93;;;7.63;;
73893;SDS011;62227;50.534;12.784;2022-07-23T18:37:13;15.55;;;7.95;;
73893;SDS011;62227;50.534;12.784;2022-07-23T18:42:26;14.13;;;9.55;;
73893;SDS011;62227;50.534;12.784;2022-07-23T18:47:27;12.25;;;8.25;;
73893;SDS011;62227;50.534;12.784;2022-07-23T18:52:27;11.40;;;7.95;;
73893;SDS011;62227;50.534;12.784;2022-07-23T18:57:28;13.15;;;8.60;;
73893;SDS011;62227;50.534;12.784;2022-07-23T19:02:28;16.23;;;8.85;;
73893;SDS011;62227;50.534;12.784;2022-07-23T19:07:28;12.13;;;8.35;;
73893;SDS011;62227;50.534;12.784;2022-07-23T19:12:29;14.38;;;9.45;;
73893;SDS011;62227;50.534;12.784;2022-07-23T19:17:29;13.50;;;9.10;;
73893;SDS011;62227;50.534;12.784;2022-07-23T19:22:30;14.02;;;9.10;;
73893;SDS011;62227;50.534;12.784;2022-07-23T19:27:30;15.27;;;9.23;;
73893;SDS011;62227;50.534;12.784;2022-07-23T19:32:31;15.10;;;9.98;;
73893;SDS011;62227;50.534;12.784;2022-07-23T19:37:31;14.95;;;11.18;;
73893;SDS011;62227;50.534;12.784;2022-07-23T19:42:32;15.93;;;10.90;;
73893;SDS011;62227;50.534;12.784;2022-07-23T19:47:32;14.48;;;10.38;;
73893;SDS011;62227;50.534;12.784;2022-07-23T19:52:33;15.35;;;10.35;;
73893;SDS011;62227;50.534;12.784;2022-07-23T19:57:34;16.35;;;10.77;;
73893;SDS011;62227;50.534;12.784;2022-07-23T20:02:35;16.80;;;10.27;;
73893;SDS011;62227;50.534;12.784;2022-07-23T20:07:37;16.70;;;10.32;;
73893;SDS011;62227;50.534;12.784;2022-07-23T20:12:38;15.48;;;10.77;;
73893;SDS011;62227;50.534;12.784;2022-07-23T20:17:39;16.75;;;11.65;;
73893;SDS011;62227;50.534;12.784;2022-07-23T20:22:42;16.48;;;11.27;;
73893;SDS011;62227;50.534;12.784;2022-07-23T20:27:45;15.68;;;9.82;;
73893;SDS011;62227;50.534;12.784;2022-07-23T20:32:46;14.85;;;10.27;;
73893;SDS011;62227;50.534;12.784;2022-07-23T20:37:46;16.08;;;10.52;;
73893;SDS011;62227;50.534;12.784;2022-07-23T20:48:44;15.68;;;10.63;;
73893;SDS011;62227;50.534;12.784;2022-07-23T20:53:45;16.52;;;12.23;;
73893;SDS011;62227;50.534;12.784;2022-07-23T20:58:46;18.77;;;12.18;;
73893;SDS011;62227;50.534;12.784;2022-07-23T21:03:47;16.52;;;11.77;;
73893;SDS011;62227;50.534;12.784;2022-07-23T21:08:47;17.05;;;12.70;;
73893;SDS011;62227;50.534;12.784;2022-07-23T21:13:58;16.60;;;11.93;;
73893;SDS011;62227;50.534;12.784;2022-07-23T21:18:58;17.50;;;12.30;;
73893;SDS011;62227;50.534;12.784;2022-07-23T21:23:59;17.92;;;12.18;;
73893;SDS011;62227;50.534;12.784;2022-07-23T21:29:00;18.33;;;11.73;;
73893;SDS011;62227;50.534;12.784;2022-07-23T21:34:03;18.05;;;12.18;;
73893;SDS011;62227;50.534;12.784;2022-07-23T21:39:04;18.40;;;11.45;;
73893;SDS011;62227;50.534;12.784;2022-07-23T21:44:05;16.98;;;11.55;;
73893;SDS011;62227;50.534;12.784;2022-07-23T21:49:06;17.55;;;12.20;;
73893;SDS011;62227;50.534;12.784;2022-07-23T21:54:06;18.63;;;12.23;;
73893;SDS011;62227;50.534;12.784;2022-07-23T21:59:07;18.45;;;12.95;;
73893;SDS011;62227;50.534;12.784;2022-07-23T22:04:07;20.98;;;13.88;;
73893;SDS011;62227;50.534;12.784;2022-07-23T22:09:08;18.33;;;12.85;;
73893;SDS011;62227;50.534;12.784;2022-07-23T22:14:08;23.02;;;14.63;;
73893;SDS011;62227;50.534;12.784;2022-07-23T22:19:09;18.63;;;12.27;;
73893;SDS011;62227;50.534;12.784;2022-07-23T22:24:09;20.20;;;14.00;;
73893;SDS011;62227;50.534;12.784;2022-07-23T22:29:10;21.17;;;13.05;;
73893;SDS011;62227;50.534;12.784;2022-07-23T22:34:11;17.60;;;12.70;;
73893;SDS011;62227;50.534;12.784;2022-07-23T22:44:32;18.80;;;12.77;;
73893;SDS011;62227;50.534;12.784;2022-07-23T22:49:33;22.85;;;12.85;;
73893;SDS011;62227;50.534;12.784;2022-07-23T22:54:33;18.83;;;12.90;;
73893;SDS011;62227;50.534;12.784;2022-07-23T22:59:39;20.98;;;12.88;;
73893;SDS011;62227;50.534;12.784;2022-07-23T23:04:39;17.05;;;12.23;;
73893;SDS011;62227;50.534;12.784;2022-07-23T23:09:40;19.05;;;12.77;;
73893;SDS011;62227;50.534;12.784;2022-07-23T23:14:40;17.60;;;11.95;;
73893;SDS011;62227;50.534;12.784;2022-07-23T23:19:42;18.98;;;12.30;;
73893;SDS011;62227;50.534;12.784;2022-07-23T23:24:42;18.50;;;12.40;;
73893;SDS011;62227;50.534;12.784;2022-07-23T23:29:43;19.63;;;12.23;;
73893;SDS011;62227;50.534;12.784;2022-07-23T23:34:43;19.40;;;12.77;;
73893;SDS011;62227;50.534;12.784;2022-07-23T23:39:44;17.45;;;12.50;;
73893;SDS011;62227;50.534;12.784;2022-07-23T23:44:44;16.10;;;11.32;;
73893;SDS011;62227;50.534;12.784;2022-07-23T23:49:44;18.80;;;13.02;;
73893;SDS011;62227;50.534;12.784;2022-07-23T23:54:45;18.08;;;12.10;;
73893;SDS011;62227;50.534;12.784;2022-07-23T23:59:45;18.23;;;12.32;;
